Time;durP1;ratioP1;P1;durP2;ratioP2;P2;SDS_P1;SDS_P2;PMS_P1;PMS_P2;Temp;Humidity;BMP_temperature;BMP_pressure;BME280_temperature;BME280_humidity;BME280_pressure;Samples;Min_cycle;Max_cycle;Signal;HPM_P1;HPM_P2
2021/04/05 00:01:25;;;;;;;11.35;6.95;;;6.20;74.50;;;;;;4829693;29;20295;-81
2021/04/05 00:03:52;;;;;;;8.75;7.53;;;6.20;74.20;;;;;;4830071;29;20673;-82
2021/04/05 00:06:21;;;;;;;7.18;6.28;;;6.10;74.80;;;;;;4830506;29;20287;-81
2021/04/05 00:08:47;;;;;;;7.40;6.10;;;6.10;75.00;;;;;;4830066;29;20563;-81
2021/04/05 00:11:14;;;;;;;8.55;6.50;;;6.20;75.20;;;;;;4829518;29;20213;-82
2021/04/05 00:13:43;;;;;;;7.93;7.13;;;6.30;75.10;;;;;;4829436;29;20237;-82
2021/04/05 00:16:10;;;;;;;9.18;7.10;;;6.30;74.80;;;;;;4829506;29;20250;-82
2021/04/05 00:18:37;;;;;;;8.00;6.38;;;6.30;74.70;;;;;;4829740;29;20221;-82
2021/04/05 00:21:09;;;;;;;9.50;6.25;;;6.30;75.10;;;;;;4829745;29;20218;-81
2021/04/05 00:23:35;;;;;;;8.15;6.45;;;6.20;75.10;;;;;;4828818;29;20738;-82
2021/04/05 00:26:02;;;;;;;7.97;6.50;;;6.30;75.10;;;;;;4829888;29;20242;-82
2021/04/05 00:28:28;;;;;;;5.35;4.95;;;6.20;75.30;;;;;;4829416;29;20217;-82
2021/04/05 00:30:55;;;;;;;7.10;5.95;;;6.10;75.60;;;;;;4829442;29;20209;-83
2021/04/05 00:33:21;;;;;;;10.10;6.65;;;6.10;76.10;;;;;;4829267;29;20580;-80
2021/04/05 00:35:48;;;;;;;6.43;5.63;;;6.20;76.10;;;;;;4829413;29;20214;-81
2021/04/05 00:38:15;;;;;;;10.25;6.72;;;6.10;76.10;;;;;;4829262;29;20238;-83
2021/04/05 00:40:48;;;;;;;7.53;6.13;;;6.20;75.90;;;;;;4829450;29;20218;-81
2021/04/05 00:43:17;;;;;;;7.70;7.00;;;6.20;75.90;;;;;;4828424;29;20264;-83
2021/04/05 00:45:44;;;;;;;12.07;7.15;;;6.00;76.30;;;;;;4828485;29;20237;-82
2021/04/05 00:48:12;;;;;;;6.75;5.40;;;5.90;77.10;;;;;;4828851;29;20658;-82
2021/04/05 00:50:45;;;;;;;6.50;5.90;;;5.70;78.00;;;;;;4828748;29;20221;-82
2021/04/05 00:53:13;;;;;;;7.40;6.25;;;5.60;78.70;;;;;;4828328;29;20236;-81
2021/04/05 00:55:42;;;;;;;7.05;5.90;;;5.70;78.80;;;;;;4828688;29;20214;-81
2021/04/05 00:58:08;;;;;;;6.03;5.43;;;5.90;78.40;;;;;;4828766;29;20218;-82
2021/04/05 01:00:38;;;;;;;7.15;5.65;;;5.90;78.10;;;;;;4829219;29;20220;-81
2021/04/05 01:03:06;;;;;;;6.47;5.88;;;6.00;77.50;;;;;;4828550;29;20823;-81
2021/04/05 01:05:32;;;;;;;6.43;5.82;;;6.00;77.40;;;;;;4829305;29;20589;-82
2021/04/05 01:07:59;;;;;;;7.40;5.28;;;6.10;77.30;;;;;;4828702;29;20704;-82
2021/04/05 01:10:26;;;;;;;6.00;4.90;;;6.00;77.50;;;;;;4828879;29;20213;-82
2021/04/05 01:12:53;;;;;;;5.60;4.70;;;6.00;77.50;;;;;;4828163;29;20317;-82
2021/04/05 01:15:20;;;;;;;5.03;4.63;;;6.10;77.50;;;;;;4828686;29;20221;-82
2021/04/05 01:17:48;;;;;;;7.95;7.25;;;5.90;77.60;;;;;;4828269;29;20210;-81
2021/04/05 01:20:16;;;;;;;6.32;5.80;;;5.80;78.20;;;;;;4828647;29;20209;-81
2021/04/05 01:22:43;;;;;;;5.68;5.15;;;5.80;78.60;;;;;;4827797;29;20332;-80
2021/04/05 01:25:12;;;;;;;5.57;3.92;;;5.80;78.60;;;;;;4827630;29;20220;-82
2021/04/05 01:27:39;;;;;;;8.13;6.30;;;5.80;78.90;;;;;;4828120;29;20283;-81
2021/04/05 01:30:10;;;;;;;9.13;5.93;;;5.90;78.80;;;;;;4828455;29;20218;-81
2021/04/05 01:32:36;;;;;;;5.68;4.82;;;5.80;78.80;;;;;;4828040;29;20256;-82
2021/04/05 01:35:04;;;;;;;9.77;5.57;;;5.90;78.90;;;;;;4827817;29;20275;-80
2021/04/05 01:37:30;;;;;;;8.93;6.45;;;5.90;78.70;;;;;;4827361;29;20224;-81
2021/04/05 01:39:57;;;;;;;6.97;5.45;;;5.90;78.80;;;;;;4826858;29;20213;-82
2021/04/05 01:42:24;;;;;;;6.25;4.55;;;5.90;78.70;;;;;;4827879;29;20238;-81
2021/04/05 01:44:50;;;;;;;7.40;6.32;;;5.80;79.10;;;;;;4827937;29;20290;-82
2021/04/05 01:47:16;;;;;;;5.97;5.43;;;5.70;79.60;;;;;;4827587;29;20608;-82
2021/04/05 01:49:44;;;;;;;8.85;5.40;;;5.60;80.40;;;;;;4828471;29;20217;-82
2021/04/05 01:52:14;;;;;;;8.50;5.70;;;5.60;81.10;;;;;;4828851;29;20214;-80
2021/04/05 01:54:41;;;;;;;6.60;5.88;;;5.50;81.60;;;;;;4828039;29;20688;-82
2021/04/05 01:57:10;;;;;;;7.28;6.63;;;5.60;81.70;;;;;;4827452;29;20308;-82
2021/04/05 01:59:38;;;;;;;5.40;5.05;;;5.50;81.60;;;;;;4827535;29;20224;-82
2021/04/05 02:02:05;;;;;;;9.45;6.97;;;5.40;82.10;;;;;;4826750;29;20559;-81
2021/04/05 02:04:33;;;;;;;8.38;5.15;;;5.50;82.60;;;;;;4827232;29;20217;-81
2021/04/05 02:06:59;;;;;;;10.00;6.40;;;5.30;82.70;;;;;;4827199;29;20233;-81
2021/04/05 02:09:26;;;;;;;6.05;5.43;;;5.30;83.30;;;;;;4826969;29;20220;-81
2021/04/05 02:11:52;;;;;;;6.35;5.82;;;5.40;83.70;;;;;;4827297;29;20716;-82
2021/04/05 02:14:19;;;;;;;5.72;4.88;;;5.40;83.60;;;;;;4826615;29;20244;-82
2021/04/05 02:16:46;;;;;;;6.35;5.75;;;5.40;83.30;;;;;;4827443;29;20213;-82
2021/04/05 02:19:15;;;;;;;6.55;5.85;;;5.40;83.50;;;;;;4827422;29;20267;-81
2021/04/05 02:21:46;;;;;;;5.65;5.15;;;5.30;83.90;;;;;;4826539;29;20221;-82
2021/04/05 02:24:14;;;;;;;5.25;4.78;;;5.30;84.50;;;;;;4825811;29;20245;-83
2021/04/05 02:26:42;;;;;;;5.93;5.43;;;5.40;84.60;;;;;;4825973;29;20616;-82
2021/04/05 02:29:08;;;;;;;9.15;5.88;;;5.30;84.80;;;;;;4826875;29;20251;-82
2021/04/05 02:31:38;;;;;;;5.30;4.80;;;5.30;85.10;;;;;;4826698;29;20658;-81
2021/04/05 02:34:12;;;;;;;9.68;6.20;;;5.30;85.40;;;;;;4827244;29;20592;-82
2021/04/05 02:36:39;;;;;;;8.68;5.75;;;5.30;85.80;;;;;;4827208;29;20210;-82
2021/04/05 02:39:07;;;;;;;8.80;5.53;;;5.30;86.00;;;;;;4827072;29;20301;-82
2021/04/05 02:41:40;;;;;;;7.53;5.40;;;5.30;86.20;;;;;;4826471;29;20226;-81
2021/04/05 02:44:07;;;;;;;6.93;5.30;;;5.20;86.60;;;;;;4826657;29;20319;-81
2021/04/05 02:46:37;;;;;;;6.43;5.72;;;5.30;86.70;;;;;;4826638;29;20240;-81
2021/04/05 02:49:07;;;;;;;6.07;5.47;;;5.30;86.90;;;;;;4827014;29;20213;-80
2021/04/05 02:51:34;;;;;;;5.70;5.15;;;5.30;86.60;;;;;;4827772;29;20214;-82
2021/04/05 02:54:01;;;;;;;9.10;4.68;;;5.30;86.50;;;;;;4829268;29;20230;-81
2021/04/05 02:56:29;;;;;;;7.55;6.40;;;5.30;86.60;;;;;;4829600;29;20212;-82
2021/04/05 02:58:56;;;;;;;7.80;5.57;;;5.30;86.70;;;;;;4829438;29;20561;-81
2021/04/05 03:01:24;;;;;;;7.88;5.85;;;5.20;87.30;;;;;;4829459;29;20244;-82
2021/04/05 03:03:56;;;;;;;8.93;6.63;;;5.20;87.70;;;;;;4829308;29;20242;-81
2021/04/05 03:06:23;;;;;;;6.80;5.68;;;5.10;88.10;;;;;;4829409;29;20238;-83
2021/04/05 03:08:49;;;;;;;5.50;5.00;;;5.10;88.50;;;;;;4829661;29;20246;-83
2021/04/05 03:11:19;;;;;;;8.35;5.80;;;5.10;89.00;;;;;;4829337;29;20274;-81
2021/04/05 03:13:46;;;;;;;5.32;4.80;;;5.00;89.30;;;;;;4829340;29;20294;-82
2021/04/05 03:16:16;;;;;;;6.32;5.72;;;5.00;89.50;;;;;;4829426;29;20225;-82
2021/04/05 03:18:43;;;;;;;5.60;5.05;;;4.90;90.00;;;;;;4829357;29;20221;-82
2021/04/05 03:21:12;;;;;;;4.70;4.30;;;4.90;90.20;;;;;;4828923;29;20214;-82
2021/04/05 03:23:40;;;;;;;6.07;5.20;;;4.90;90.30;;;;;;4828752;29;20241;-81
2021/04/05 03:26:07;;;;;;;6.47;4.85;;;5.10;90.30;;;;;;4828970;29;20233;-81
2021/04/05 03:28:33;;;;;;;6.20;5.68;;;5.00;90.30;;;;;;4828969;29;20332;-82
2021/04/05 03:31:02;;;;;;;7.93;5.70;;;4.90;90.60;;;;;;4828792;29;20266;-82
2021/04/05 03:33:35;;;;;;;5.75;5.30;;;5.00;90.60;;;;;;4828331;29;20238;-82
2021/04/05 03:36:08;;;;;;;7.15;6.10;;;5.00;90.70;;;;;;4829020;29;20199;-83
2021/04/05 03:38:36;;;;;;;5.47;4.65;;;5.00;90.90;;;;;;4828782;29;20198;-82
2021/04/05 03:41:09;;;;;;;8.20;6.38;;;5.00;90.80;;;;;;4828575;29;20308;-80
2021/04/05 03:43:41;;;;;;;5.90;5.30;;;5.10;90.80;;;;;;4828527;29;20289;-81
2021/04/05 03:46:17;;;;;;;6.95;6.15;;;5.10;90.70;;;;;;4830535;29;20225;-79
2021/04/05 03:48:50;;;;;;;5.38;4.68;;;5.10;90.70;;;;;;4834468;29;20205;-80
2021/04/05 03:51:22;;;;;;;6.68;5.57;;;5.20;90.70;;;;;;4834168;29;20201;-79
2021/04/05 03:53:55;;;;;;;6.45;5.28;;;5.20;90.70;;;;;;4833020;29;20238;-81
2021/04/05 03:56:30;;;;;;;5.78;5.30;;;5.30;90.60;;;;;;4828858;29;20197;-82
2021/04/05 03:59:05;;;;;;;4.93;4.53;;;5.30;90.70;;;;;;4828392;29;20217;-82
2021/04/05 04:01:31;;;;;;;8.10;6.28;;;5.20;90.50;;;;;;4828446;29;20218;-81
2021/04/05 04:04:06;;;;;;;6.35;5.35;;;4.90;90.90;;;;;;4827894;29;20734;-81
2021/04/05 04:06:37;;;;;;;10.43;6.30;;;4.80;91.40;;;;;;4828684;29;20225;-82
2021/04/05 04:09:06;;;;;;;7.15;6.05;;;4.80;91.70;;;;;;4829318;29;20247;-82
2021/04/05 04:11:35;;;;;;;8.75;5.90;;;4.80;91.80;;;;;;4829005;29;20222;-83
2021/04/05 04:14:05;;;;;;;10.85;6.32;;;4.80;91.80;;;;;;4829019;29;20325;-82
2021/04/05 04:16:33;;;;;;;7.47;5.72;;;4.80;92.00;;;;;;4829531;29;20194;-82
2021/04/05 04:19:03;;;;;;;7.32;6.65;;;4.80;92.00;;;;;;4829151;29;20221;-81
2021/04/05 04:21:29;;;;;;;10.57;5.47;;;4.70;92.10;;;;;;4827889;29;20221;-82
2021/04/05 04:23:57;;;;;;;5.93;4.95;;;4.80;92.30;;;;;;4829796;29;20237;-84
2021/04/05 04:26:24;;;;;;;8.20;5.65;;;4.80;92.20;;;;;;4830864;29;20237;-84
2021/04/05 04:28:51;;;;;;;6.25;5.75;;;4.80;92.10;;;;;;4831057;29;20628;-84
2021/04/05 04:31:20;;;;;;;5.55;5.00;;;4.70;92.30;;;;;;4830875;29;20213;-83
2021/04/05 04:33:47;;;;;;;5.95;5.40;;;4.70;92.20;;;;;;4830456;29;20233;-82
2021/04/05 04:36:14;;;;;;;6.90;5.35;;;4.60;92.20;;;;;;4830173;29;20214;-83
2021/04/05 04:38:40;;;;;;;7.30;5.30;;;4.80;92.40;;;;;;4830196;29;20840;-84
2021/04/05 04:41:07;;;;;;;10.27;5.68;;;4.80;92.20;;;;;;4830864;29;20222;-83
2021/04/05 04:43:34;;;;;;;7.85;6.10;;;4.90;92.10;;;;;;4829595;29;20241;-82
2021/04/05 04:46:00;;;;;;;7.97;5.38;;;4.90;91.90;;;;;;4830169;29;20718;-84
2021/04/05 04:48:26;;;;;;;7.80;4.63;;;4.90;91.90;;;;;;4830418;29;20214;-84
2021/04/05 04:50:52;;;;;;;6.35;5.72;;;5.00;92.00;;;;;;4829865;29;20224;-83
2021/04/05 04:53:19;;;;;;;4.97;4.53;;;5.00;91.90;;;;;;4830356;29;20238;-84
2021/04/05 04:55:45;;;;;;;5.70;4.82;;;5.00;91.80;;;;;;4830404;29;20224;-82
2021/04/05 04:58:11;;;;;;;6.50;5.35;;;5.00;91.80;;;;;;4830244;29;20213;-83
2021/04/05 05:00:38;;;;;;;6.93;6.13;;;5.10;91.70;;;;;;4830467;29;20243;-84
2021/04/05 05:03:06;;;;;;;6.70;6.05;;;5.10;91.60;;;;;;4830310;29;20230;-84
2021/04/05 05:05:34;;;;;;;5.85;4.88;;;5.00;91.50;;;;;;4829955;29;20224;-84
2021/04/05 05:08:01;;;;;;;8.02;5.88;;;4.90;91.50;;;;;;4830110;29;20268;-84
2021/04/05 05:10:27;;;;;;;5.10;4.60;;;4.90;91.70;;;;;;4830295;29;20217;-84
2021/04/05 05:12:54;;;;;;;5.15;4.75;;;4.90;91.80;;;;;;4830352;29;20261;-82
2021/04/05 05:15:22;;;;;;;5.53;5.03;;;5.00;91.70;;;;;;4828883;29;20665;-84
2021/04/05 05:17:49;;;;;;;6.38;5.40;;;5.10;91.60;;;;;;4829978;29;20213;-84
2021/04/05 05:20:17;;;;;;;6.18;5.57;;;5.20;91.40;;;;;;4830197;29;20218;-83
2021/04/05 05:22:46;;;;;;;7.38;5.65;;;5.20;91.20;;;;;;4830045;29;20258;-82
2021/04/05 05:25:16;;;;;;;4.93;4.00;;;5.30;91.00;;;;;;4829766;29;20222;-84
2021/04/05 05:27:46;;;;;;;6.93;5.22;;;5.20;90.80;;;;;;4830502;29;20245;-84
2021/04/05 05:30:20;;;;;;;6.40;5.22;;;5.10;90.90;;;;;;4831029;29;20240;-84
2021/04/05 05:32:47;;;;;;;6.30;4.88;;;5.20;91.10;;;;;;4829526;29;20324;-83
2021/04/05 05:35:16;;;;;;;6.15;5.25;;;5.30;91.20;;;;;;4830156;29;20230;-84
2021/04/05 05:37:42;;;;;;;6.97;5.35;;;5.30;91.00;;;;;;4829686;29;20287;-82
2021/04/05 05:40:12;;;;;;;8.25;4.97;;;5.50;91.00;;;;;;4829478;29;20218;-84
2021/04/05 05:42:54;;;;;;;7.03;4.85;;;5.40;90.70;;;;;;4829234;29;20244;-83
2021/04/05 05:45:25;;;;;;;6.65;4.90;;;5.50;90.60;;;;;;4830056;29;20209;-83
2021/04/05 05:48:03;;;;;;;6.18;5.65;;;5.60;90.60;;;;;;4829767;29;20233;-84
2021/04/05 05:50:40;;;;;;;6.45;5.18;;;5.70;90.30;;;;;;4830215;29;20630;-84
2021/04/05 05:53:16;;;;;;;6.13;5.35;;;5.90;90.20;;;;;;4828847;29;20257;-82
2021/04/05 05:55:54;;;;;;;6.18;4.88;;;6.00;90.00;;;;;;4829816;29;20270;-84
2021/04/05 05:58:28;;;;;;;5.80;5.30;;;6.00;88.80;;;;;;4829579;29;20245;-81
2021/04/05 06:01:05;;;;;;;5.90;5.10;;;6.10;89.20;;;;;;4811205;29;20220;-84
2021/04/05 06:03:35;;;;;;;8.07;5.07;;;6.10;88.90;;;;;;4810268;29;20712;-84
2021/04/05 06:06:15;;;;;;;4.97;4.57;;;6.00;88.80;;;;;;4811187;29;20213;-84
2021/04/05 06:08:57;;;;;;;8.50;4.82;;;6.20;88.70;;;;;;4811256;29;20696;-83
2021/04/05 06:11:46;;;;;;;10.25;4.75;;;6.20;88.70;;;;;;4810888;29;20225;-83
2021/04/05 06:14:23;;;;;;;6.15;4.45;;;6.20;88.10;;;;;;4810291;29;20249;-84
2021/04/05 06:17:05;;;;;;;6.13;4.50;;;6.20;88.40;;;;;;4811297;29;20211;-82
2021/04/05 06:19:46;;;;;;;5.10;4.60;;;6.30;87.70;;;;;;4811570;29;20221;-84
2021/04/05 06:22:26;;;;;;;4.53;4.18;;;6.30;87.20;;;;;;4810169;29;20210;-84
2021/04/05 06:24:59;;;;;;;4.95;4.55;;;6.20;87.60;;;;;;4811115;29;20750;-84
2021/04/05 06:27:36;;;;;;;7.38;4.75;;;6.40;87.60;;;;;;4816070;29;20230;-81
2021/04/05 06:30:06;;;;;;;5.43;4.65;;;6.50;87.30;;;;;;4819443;29;20673;-84
2021/04/05 06:32:55;;;;;;;5.68;4.78;;;6.60;86.20;;;;;;4817249;29;20306;-84
2021/04/05 06:35:44;;;;;;;6.95;5.10;;;6.60;85.60;;;;;;4814948;29;20210;-83
2021/04/05 06:38:19;;;;;;;5.45;4.65;;;6.70;85.60;;;;;;4814873;29;20218;-84
2021/04/05 06:40:46;;;;;;;9.77;4.13;;;6.80;84.50;;;;;;4817539;29;20223;-84
2021/04/05 06:43:48;;;;;;;4.55;3.85;;;6.90;84.20;;;;;;4814126;29;20299;-84
2021/04/05 06:46:24;;;;;;;6.15;5.30;;;7.10;83.70;;;;;;4814432;29;20615;-84
2021/04/05 06:49:31;;;;;;;7.90;4.63;;;7.20;82.80;;;;;;4814362;29;20198;-84
2021/04/05 06:52:08;;;;;;;7.07;4.88;;;7.20;82.70;;;;;;4775716;30;20222;-84
2021/04/05 06:55:00;;;;;;;6.20;5.45;;;7.30;82.30;;;;;;4776341;30;20250;-84
2021/04/05 06:57:37;;;;;;;5.15;4.65;;;7.30;81.80;;;;;;4802377;29;20221;-84
2021/04/05 07:00:08;;;;;;;4.00;3.65;;;7.40;81.40;;;;;;4814184;29;20634;-84
2021/04/05 07:02:58;;;;;;;5.25;4.82;;;7.50;81.00;;;;;;4813979;29;20317;-84
2021/04/05 07:05:40;;;;;;;6.70;4.38;;;7.60;80.80;;;;;;4814315;29;20267;-83
2021/04/05 07:08:15;;;;;;;5.97;4.85;;;7.60;80.50;;;;;;4813665;29;20268;-84
2021/04/05 07:10:51;;;;;;;4.80;4.38;;;7.70;80.50;;;;;;4813927;29;20214;-84
2021/04/05 07:13:27;;;;;;;7.05;4.47;;;7.80;80.10;;;;;;4815224;29;20242;-82
2021/04/05 07:16:00;;;;;;;5.32;4.82;;;7.90;79.50;;;;;;4817746;29;20222;-83
2021/04/05 07:18:47;;;;;;;6.13;4.25;;;8.10;79.50;;;;;;4819534;29;20320;-80
2021/04/05 07:21:31;;;;;;;7.57;5.15;;;8.10;78.60;;;;;;4820810;29;20782;-83
2021/04/05 07:24:13;;;;;;;5.25;4.75;;;8.10;78.60;;;;;;4825009;29;20242;-81
2021/04/05 07:26:46;;;;;;;5.00;3.90;;;8.30;78.20;;;;;;4824833;29;20230;-82
2021/04/05 07:29:17;;;;;;;7.28;5.57;;;8.40;77.90;;;;;;4826205;29;20242;-81
2021/04/05 07:31:54;;;;;;;5.80;5.20;;;8.50;78.00;;;;;;4825034;29;20238;-84
2021/04/05 07:34:34;;;;;;;4.50;4.10;;;8.40;77.60;;;;;;4819584;29;20230;-82
2021/04/05 07:37:31;;;;;;;4.70;3.63;;;8.50;77.50;;;;;;4814012;29;20466;-82
2021/04/05 07:40:05;;;;;;;5.28;4.28;;;8.70;77.20;;;;;;4813992;29;20507;-84
2021/04/05 07:42:37;;;;;;;6.40;4.28;;;8.90;77.60;;;;;;4813974;29;20237;-84
2021/04/05 07:45:08;;;;;;;3.22;2.97;;;8.80;76.20;;;;;;4813620;29;20709;-83
2021/04/05 07:47:42;;;;;;;4.75;4.30;;;8.90;76.10;;;;;;4820281;29;20265;-82
2021/04/05 07:50:15;;;;;;;6.60;5.07;;;9.00;76.70;;;;;;4818398;29;20220;-84
2021/04/05 07:52:48;;;;;;;6.00;5.38;;;9.10;75.10;;;;;;4818948;29;20500;-83
2021/04/05 07:55:15;;;;;;;4.90;4.30;;;9.20;75.20;;;;;;4817923;29;20223;-84
2021/04/05 07:57:56;;;;;;;4.65;4.20;;;9.30;75.50;;;;;;4816350;29;20220;-84
2021/04/05 08:00:29;;;;;;;5.70;4.80;;;9.40;75.30;;;;;;4814131;29;20222;-84
2021/04/05 08:03:06;;;;;;;7.97;5.60;;;9.60;75.50;;;;;;4813384;29;20556;-83
2021/04/05 08:05:45;;;;;;;6.43;4.30;;;9.60;74.60;;;;;;4813297;29;20860;-83
2021/04/05 08:08:25;;;;;;;8.50;4.73;;;9.70;74.40;;;;;;4813934;29;21031;-84
2021/04/05 08:11:03;;;;;;;8.37;5.07;;;9.90;74.30;;;;;;4814499;29;20508;-82
2021/04/05 08:13:40;;;;;;;5.97;4.60;;;10.10;73.00;;;;;;4814377;29;20505;-83
2021/04/05 08:16:14;;;;;;;7.20;5.33;;;10.30;73.10;;;;;;4815011;29;20466;-84
2021/04/05 08:18:50;;;;;;;8.17;5.07;;;10.40;72.20;;;;;;4813834;29;20450;-84
2021/04/05 08:21:21;;;;;;;6.77;4.37;;;10.60;72.00;;;;;;4812708;29;20470;-84
2021/04/05 08:23:54;;;;;;;10.33;5.73;;;10.80;71.60;;;;;;4813058;29;20514;-83
2021/04/05 08:26:29;;;;;;;6.87;5.67;;;11.00;70.60;;;;;;4813071;29;20464;-82
2021/04/05 08:29:04;;;;;;;4.40;4.00;;;11.10;68.90;;;;;;4813305;29;20467;-82
2021/04/05 08:32:06;;;;;;;5.03;4.13;;;11.30;69.00;;;;;;4812928;29;20464;-83
2021/04/05 08:34:45;;;;;;;5.00;3.60;;;11.30;66.70;;;;;;4812838;29;20537;-83
2021/04/05 08:37:21;;;;;;;5.33;4.27;;;11.50;66.40;;;;;;4812716;29;20460;-84
2021/04/05 08:39:59;;;;;;;11.07;3.57;;;11.50;64.20;;;;;;4813500;29;20470;-83
2021/04/05 08:42:31;;;;;;;6.40;4.20;;;11.50;64.60;;;;;;4816694;29;20478;-81
2021/04/05 08:45:03;;;;;;;10.03;3.93;;;11.50;64.60;;;;;;4816373;29;20467;-83
2021/04/05 08:47:31;;;;;;;5.60;3.10;;;11.60;64.70;;;;;;4812186;29;20898;-81
2021/04/05 08:50:03;;;;;;;5.23;3.93;;;11.40;62.70;;;;;;4811847;29;20467;-80
2021/04/05 08:52:42;;;;;;;6.30;2.37;;;11.40;61.90;;;;;;4812083;29;20550;-80
2021/04/05 08:55:12;;;;;;;4.77;2.47;;;11.40;61.50;;;;;;4816913;29;20465;-82
2021/04/05 08:57:47;;;;;;;4.27;3.70;;;11.30;60.20;;;;;;4815949;29;20451;-82
2021/04/05 09:00:16;;;;;;;4.60;3.10;;;11.20;59.60;;;;;;4816713;29;20462;-83
2021/04/05 09:02:46;;;;;;;5.13;3.07;;;11.20;59.70;;;;;;4816295;29;20484;-80
2021/04/05 09:05:18;;;;;;;5.10;3.27;;;11.20;59.70;;;;;;4818960;29;20467;-82
2021/04/05 09:07:57;;;;;;;3.70;3.17;;;11.30;59.40;;;;;;4817894;29;20509;-80
2021/04/05 09:10:27;;;;;;;4.77;3.47;;;11.30;59.10;;;;;;4823134;29;20458;-81
2021/04/05 09:12:56;;;;;;;6.03;3.10;;;11.10;59.80;;;;;;4828433;29;20534;-79
2021/04/05 09:16:01;;;;;;;4.37;2.77;;;11.00;59.80;;;;;;4835810;29;20458;-79
2021/04/05 09:18:51;;;;;;;8.70;4.00;;;10.80;59.10;;;;;;4821826;29;20475;-82
2021/04/05 09:21:29;;;;;;;5.93;3.50;;;10.70;59.70;;;;;;4823643;29;20454;-83
2021/04/05 09:24:31;;;;;;;3.70;2.97;;;10.80;60.20;;;;;;4818640;29;20482;-85
2021/04/05 09:27:35;;;;;;;3.17;2.87;;;11.00;61.00;;;;;;4821608;29;20489;-82
2021/04/05 09:30:28;;;;;;;8.67;3.30;;;11.10;60.90;;;;;;4774015;30;20453;-81
2021/04/05 09:33:34;;;;;;;4.57;2.90;;;11.10;59.10;;;;;;4820767;29;20498;-79
2021/04/05 09:36:19;;;;;;;4.10;2.90;;;11.10;58.50;;;;;;4826237;29;20451;-82
2021/04/05 09:39:15;;;;;;;11.47;3.80;;;11.10;58.70;;;;;;4824513;29;20880;-80
2021/04/05 09:42:08;;;;;;;3.70;3.40;;;11.10;58.80;;;;;;4814150;29;20468;-81
2021/04/05 09:45:14;;;;;;;3.50;3.20;;;11.30;59.00;;;;;;4820338;29;20866;-82
2021/04/05 09:48:17;;;;;;;4.43;2.60;;;11.40;58.90;;;;;;4779278;30;20523;-83
2021/04/05 09:51:08;;;;;;;3.53;3.20;;;11.60;58.40;;;;;;4774867;30;20465;-82
2021/04/05 09:53:48;;;;;;;3.27;2.90;;;11.60;58.20;;;;;;4808801;29;20487;-85
2021/04/05 09:56:19;;;;;;;3.03;2.73;;;11.70;58.00;;;;;;4813362;29;20876;-82
2021/04/05 09:58:51;;;;;;;5.13;2.60;;;11.70;58.20;;;;;;4819858;29;20455;-82
2021/04/05 10:01:21;;;;;;;5.63;3.60;;;11.80;58.10;;;;;;4820803;29;20867;-81
2021/04/05 10:03:52;;;;;;;5.57;2.70;;;11.90;58.60;;;;;;4817131;29;20491;-84
2021/04/05 10:06:20;;;;;;;2.70;2.50;;;12.00;58.30;;;;;;4818120;29;20475;-83
2021/04/05 10:08:49;;;;;;;5.43;3.17;;;11.90;58.10;;;;;;4817359;29;20512;-82
2021/04/05 10:11:16;;;;;;;5.33;3.37;;;11.90;58.20;;;;;;4816736;29;20467;-82
2021/04/05 10:13:47;;;;;;;7.47;3.20;;;12.10;58.10;;;;;;4817276;29;20501;-82
2021/04/05 10:16:15;;;;;;;4.67;3.10;;;12.00;57.00;;;;;;4816625;29;20466;-82
2021/04/05 10:18:48;;;;;;;5.30;3.10;;;11.90;56.90;;;;;;4817136;29;20836;-83
2021/04/05 10:21:15;;;;;;;4.60;3.60;;;11.90;57.20;;;;;;4817501;29;20460;-82
2021/04/05 10:23:42;;;;;;;4.33;2.23;;;11.90;56.40;;;;;;4816846;29;20478;-84
2021/04/05 10:26:10;;;;;;;5.60;2.97;;;12.00;55.40;;;;;;4817240;29;20472;-84
2021/04/05 10:28:40;;;;;;;3.43;2.50;;;12.00;55.40;;;;;;4818153;29;21018;-84
2021/04/05 10:31:09;;;;;;;4.27;3.33;;;11.70;54.60;;;;;;4818308;29;20510;-83
2021/04/05 10:33:38;;;;;;;3.27;2.97;;;11.50;55.30;;;;;;4838543;29;20547;-85
2021/04/05 10:36:07;;;;;;;2.87;2.63;;;11.70;55.40;;;;;;4839205;29;20465;-82
2021/04/05 10:38:36;;;;;;;4.40;2.93;;;11.80;55.00;;;;;;4840356;29;20846;-85
2021/04/05 10:41:05;;;;;;;4.30;2.90;;;12.00;53.70;;;;;;4839840;29;20535;-85
2021/04/05 10:43:38;;;;;;;4.50;3.97;;;12.00;52.10;;;;;;4855153;29;20482;-85
2021/04/05 10:46:12;;;;;;;3.87;3.10;;;12.20;51.70;;;;;;4858093;29;20442;-83
2021/04/05 10:48:41;;;;;;;4.73;3.30;;;12.20;50.70;;;;;;4856711;29;20492;-85
2021/04/05 10:51:11;;;;;;;4.77;2.37;;;12.40;50.80;;;;;;4858086;29;20450;-85
2021/04/05 10:53:41;;;;;;;9.13;3.10;;;12.30;49.10;;;;;;4858602;29;20481;-84
2021/04/05 10:56:10;;;;;;;5.07;3.33;;;12.20;48.90;;;;;;4861232;29;20457;-85
2021/04/05 10:58:53;;;;;;;3.90;3.50;;;12.20;48.70;;;;;;4858739;29;20453;-85
2021/04/05 11:01:22;;;;;;;4.60;3.30;;;12.20;48.30;;;;;;4855325;29;20445;-86
2021/04/05 11:03:51;;;;;;;3.50;2.80;;;12.10;48.80;;;;;;4849113;29;20478;-85
2021/04/05 11:06:20;;;;;;;4.20;2.30;;;12.30;48.80;;;;;;4837558;29;20469;-84
2021/04/05 11:08:48;;;;;;;3.70;3.33;;;12.40;48.30;;;;;;4839266;29;20450;-84
2021/04/05 11:11:16;;;;;;;4.60;3.30;;;12.50;48.10;;;;;;4839151;29;20465;-81
2021/04/05 11:13:47;;;;;;;3.53;2.67;;;12.60;48.70;;;;;;4836017;29;20488;-83
2021/04/05 11:16:17;;;;;;;3.57;3.20;;;12.70;47.50;;;;;;4836632;29;20462;-82
2021/04/05 11:18:51;;;;;;;4.50;3.20;;;12.80;48.20;;;;;;4834489;29;20451;-83
2021/04/05 11:21:22;;;;;;;2.70;2.37;;;12.70;48.10;;;;;;4833428;29;20465;-83
2021/04/05 11:23:50;;;;;;;3.63;3.30;;;12.80;48.00;;;;;;4831885;29;20455;-83
2021/04/05 11:26:23;;;;;;;4.83;2.83;;;12.90;48.70;;;;;;4833063;29;20458;-83
2021/04/05 11:28:54;;;;;;;5.60;2.90;;;13.10;47.90;;;;;;4837118;29;20486;-85
2021/04/05 11:31:21;;;;;;;4.00;2.93;;;13.10;47.90;;;;;;4836792;29;20474;-86
2021/04/05 11:33:52;;;;;;;3.77;3.40;;;13.00;47.60;;;;;;4835185;29;20486;-80
2021/04/05 11:36:18;;;;;;;2.83;2.63;;;13.00;48.10;;;;;;4830907;29;20459;-81
2021/04/05 11:38:46;;;;;;;5.67;3.13;;;12.60;48.80;;;;;;4829563;29;20463;-81
2021/04/05 11:41:15;;;;;;;3.57;2.90;;;12.40;50.30;;;;;;4829131;29;20505;-81
2021/04/05 11:43:44;;;;;;;5.83;2.57;;;12.10;51.30;;;;;;4828509;29;20479;-79
2021/04/05 11:46:15;;;;;;;4.27;3.83;;;12.00;52.00;;;;;;4830003;29;20927;-80
2021/04/05 11:48:43;;;;;;;6.30;4.60;;;11.90;52.70;;;;;;4830100;29;20512;-83
2021/04/05 11:51:10;;;;;;;3.90;3.00;;;11.90;53.00;;;;;;4828821;29;20458;-82
2021/04/05 11:53:47;;;;;;;9.27;3.77;;;11.90;53.50;;;;;;4827709;29;20490;-81
2021/04/05 11:56:21;;;;;;;7.47;4.77;;;12.00;54.20;;;;;;4829035;29;20458;-82
2021/04/05 11:58:57;;;;;;;6.53;4.97;;;11.80;54.50;;;;;;4845163;29;20461;-82
2021/04/05 12:01:25;;;;;;;6.67;5.17;;;11.70;55.20;;;;;;4847751;29;20455;-82
2021/04/05 12:03:58;;;;;;;8.00;4.43;;;11.70;55.70;;;;;;4845563;29;20489;-84
2021/04/05 12:07:08;;;;;;;6.10;3.70;;;11.70;55.80;;;;;;4846495;29;20819;-84
2021/04/05 12:26:43;;;;;;;8.37;5.53;;;10.80;57.80;;;;;;4659572;30;21148;-81
2021/04/05 12:29:11;;;;;;;6.03;4.40;;;10.70;58.50;;;;;;4753306;30;21071;-81
2021/04/05 12:31:38;;;;;;;11.43;6.27;;;10.60;59.00;;;;;;4795639;29;20474;-83
2021/04/05 12:34:09;;;;;;;7.53;5.23;;;10.60;59.40;;;;;;4813228;29;20468;-80
2021/04/05 12:36:37;;;;;;;7.17;6.03;;;10.70;59.60;;;;;;4814012;29;20500;-80
2021/04/05 12:39:07;;;;;;;8.80;6.60;;;10.60;59.60;;;;;;4813984;29;20469;-80
2021/04/05 12:41:35;;;;;;;8.03;6.57;;;10.50;59.90;;;;;;4814135;29;20462;-79
2021/04/05 12:44:03;;;;;;;7.20;6.30;;;10.60;60.60;;;;;;4813534;29;20481;-80
2021/04/05 12:46:30;;;;;;;9.23;6.87;;;10.70;60.80;;;;;;4814677;29;20474;-81
2021/04/05 12:48:59;;;;;;;15.30;7.07;;;10.70;60.40;;;;;;4814518;29;20462;-80
2021/04/05 12:51:27;;;;;;;12.33;7.37;;;10.70;61.60;;;;;;4814887;29;20474;-80
2021/04/05 12:54:00;;;;;;;13.67;8.13;;;10.50;62.20;;;;;;4814640;29;20490;-80
2021/04/05 12:56:27;;;;;;;13.20;6.43;;;10.60;63.40;;;;;;4815615;29;20450;-80
2021/04/05 12:58:54;;;;;;;7.83;6.97;;;10.60;63.70;;;;;;4815359;29;20816;-80
2021/04/05 13:01:30;;;;;;;11.30;8.00;;;10.50;64.20;;;;;;4814748;29;20536;-80
2021/04/05 13:04:00;;;;;;;9.47;6.97;;;10.40;64.90;;;;;;4814098;29;20493;-80
2021/04/05 13:06:34;;;;;;;15.60;9.87;;;10.20;65.80;;;;;;4814810;29;20976;-80
2021/04/05 13:09:07;;;;;;;12.87;8.83;;;10.10;67.20;;;;;;4814452;29;20458;-80
2021/04/05 13:11:38;;;;;;;12.00;6.27;;;10.10;67.90;;;;;;4814392;29;20831;-80
2021/04/05 13:14:11;;;;;;;11.47;8.20;;;10.20;68.20;;;;;;4814726;29;20490;-80
2021/04/05 13:16:46;;;;;;;10.77;7.90;;;10.10;68.20;;;;;;4815742;29;20458;-80
2021/04/05 13:19:15;;;;;;;15.20;6.70;;;10.20;68.90;;;;;;4816352;29;20786;-80
2021/04/05 13:21:43;;;;;;;10.90;6.03;;;10.20;69.00;;;;;;4815222;29;20979;-80
2021/04/05 13:24:14;;;;;;;10.97;8.33;;;10.10;69.60;;;;;;4815744;29;20478;-80
2021/04/05 13:26:45;;;;;;;14.20;9.30;;;10.00;70.00;;;;;;4815362;29;20465;-80
2021/04/05 13:29:13;;;;;;;13.03;8.90;;;10.10;70.40;;;;;;4815309;29;20467;-80
2021/04/05 13:31:42;;;;;;;12.50;9.43;;;10.10;70.80;;;;;;4814589;29;20482;-81
2021/04/05 13:34:10;;;;;;;15.20;7.47;;;10.10;70.90;;;;;;4815382;29;20484;-81
2021/04/05 13:36:44;;;;;;;16.80;8.57;;;10.20;71.10;;;;;;4814851;29;20474;-80